Watsonville, California
Current Conditions -  °F | °C
As of 12:53 PM on Monday 22 Dec 2014 (Local Time) from KWVI Reporting Station
Scattered Clouds Scattered Clouds  
Wind Chill: 65°   Ceiling: Unl
Heat Index: 65°   Visibility: 10mi
Dew Point: 59°   Wind: 8mph
Humidity: 81%   Direction: 200°SSW
Pressure: 30.2"   Gusts: NA
Location:  36.91°N, 121.75°W
Report Text: KWVI 222053Z AUTO 20007KT 10SM SCT021 18/15 A3020 RMK AO2 SLP225 T01830150 56020
Loading
Personal Weather Stations






























Interactive Weather Map New forecast layout! Learn more

10-Day Weather Forecast

Advertisements
Track Severe Weather on mobile